Terminal Aerodrome Forecast
Issued by NWS

Current Version | Previous Version | Text Only | Print | Product List | Glossary On
Versions: 1 2 3 4 5 6 7 8 9 10 11 12 13 14 15 16
000
FTUS43 KTOP 202300
TAFFOE
TAF
KFOE 202320Z 2100/2124 01005KT P6SM SKC
     FM211000 20002KT 4SM BR SKC
     FM211400 13004KT P6SM SKC=

USA.gov is the U.S. government's official web portal to all federal, state and local government web resources and services.